createdAt,value
2022-10-28T00:00:00.642Z,10.95
2022-10-28T00:01:00.796Z,10.95
2022-10-28T00:02:01.157Z,10.94
2022-10-28T00:03:01.180Z,10.93
2022-10-28T00:04:01.241Z,10.93
2022-10-28T00:05:00.409Z,10.93
2022-10-28T00:06:00.542Z,10.95
2022-10-28T00:07:00.675Z,10.95
2022-10-28T00:08:00.852Z,10.94
2022-10-28T00:09:00.979Z,10.94
2022-10-28T00:10:01.126Z,10.95
2022-10-28T00:11:00.271Z,10.97
2022-10-28T00:12:00.418Z,11.01
2022-10-28T00:13:00.576Z,11
2022-10-28T00:14:00.709Z,11
2022-10-28T00:15:00.850Z,10.98
2022-10-28T00:16:01.000Z,10.97
2022-10-28T00:17:01.139Z,10.96
2022-10-28T00:18:00.315Z,10.95
2022-10-28T00:19:00.448Z,10.96
2022-10-28T00:20:00.592Z,10.97
2022-10-28T00:21:00.756Z,10.99
2022-10-28T00:22:00.878Z,11.02
2022-10-28T00:23:01.031Z,11.1
2022-10-28T00:24:01.176Z,11.14
2022-10-28T00:25:00.333Z,11.19
2022-10-28T00:26:00.493Z,11.25
2022-10-28T00:27:00.620Z,11.27
2022-10-28T00:28:00.769Z,11.3
2022-10-28T00:29:00.948Z,11.37
2022-10-28T00:30:01.062Z,11.4
2022-10-28T00:31:01.213Z,11.43
2022-10-28T00:32:00.353Z,11.47
2022-10-28T00:33:00.489Z,11.51
2022-10-28T00:34:00.661Z,11.54
2022-10-28T00:35:00.798Z,11.57
2022-10-28T00:36:04.238Z,11.6
2022-10-28T00:37:01.089Z,11.61
2022-10-28T00:38:01.274Z,11.63
2022-10-28T00:39:00.388Z,11.63
2022-10-28T00:40:00.538Z,11.61
2022-10-28T00:41:00.685Z,11.57
2022-10-28T00:42:00.832Z,11.55
2022-10-28T00:43:01.005Z,11.54
2022-10-28T00:44:01.147Z,11.54
2022-10-28T00:45:00.306Z,11.52
2022-10-28T00:46:00.437Z,11.51
2022-10-28T00:47:00.594Z,11.49
2022-10-28T00:48:00.739Z,11.51
2022-10-28T00:49:00.885Z,11.53
2022-10-28T00:50:01.047Z,11.55
2022-10-28T00:51:01.162Z,11.58
2022-10-28T00:52:00.311Z,11.61
2022-10-28T00:53:00.461Z,11.63
2022-10-28T00:54:00.604Z,11.66
2022-10-28T00:55:00.776Z,11.67
2022-10-28T00:56:00.908Z,11.69
2022-10-28T00:57:01.059Z,11.72
2022-10-28T00:58:01.196Z,11.73
2022-10-28T00:59:00.351Z,11.75
2022-10-28T01:00:00.505Z,11.79
2022-10-28T01:01:00.632Z,11.85
2022-10-28T01:02:00.946Z,11.89
2022-10-28T01:03:00.925Z,11.9
2022-10-28T01:04:01.078Z,11.91
2022-10-28T01:05:01.243Z,11.92
2022-10-28T01:06:00.373Z,11.92
2022-10-28T01:07:00.524Z,11.93
2022-10-28T01:08:00.677Z,11.93
2022-10-28T01:09:00.825Z,11.93
2022-10-28T01:10:00.987Z,11.93
2022-10-28T01:11:01.135Z,11.97
2022-10-28T01:12:00.253Z,12.02
2022-10-28T01:13:00.391Z,12.05
2022-10-28T01:14:00.541Z,12.06
2022-10-28T01:15:00.691Z,12.07
2022-10-28T01:16:00.858Z,12.1
2022-10-28T01:17:00.991Z,12.12
2022-10-28T01:18:01.150Z,12.17
2022-10-28T01:19:00.288Z,12.21
2022-10-28T01:20:00.460Z,12.26
2022-10-28T01:21:00.608Z,12.28
2022-10-28T01:22:00.747Z,12.3
2022-10-28T01:23:00.894Z,12.35
2022-10-28T01:24:01.070Z,12.38
2022-10-28T01:25:01.191Z,12.45
2022-10-28T01:26:00.344Z,12.51
2022-10-28T01:27:00.492Z,12.59
2022-10-28T01:28:00.654Z,12.65
2022-10-28T01:29:00.808Z,12.73
2022-10-28T01:30:00.959Z,12.85
2022-10-28T01:31:01.098Z,12.96
2022-10-28T01:32:01.260Z,13.09
2022-10-28T01:33:00.385Z,13.22
2022-10-28T01:34:00.534Z,13.35
2022-10-28T01:35:00.700Z,13.47
2022-10-28T01:36:00.827Z,13.6
2022-10-28T01:37:00.988Z,13.71
2022-10-28T01:38:01.145Z,13.81
2022-10-28T01:39:00.281Z,13.91
2022-10-28T01:40:00.429Z,14.01
2022-10-28T01:41:00.574Z,14.1
2022-10-28T01:42:00.717Z,14.19
2022-10-28T01:43:00.864Z,14.25
2022-10-28T01:44:01.014Z,14.33
2022-10-28T01:45:01.182Z,14.4
2022-10-28T01:46:00.302Z,14.43
2022-10-28T01:47:00.449Z,14.47
2022-10-28T01:48:00.592Z,14.51
2022-10-28T01:49:00.767Z,14.55
2022-10-28T01:50:00.885Z,14.59
2022-10-28T01:51:01.034Z,14.63
2022-10-28T01:52:01.177Z,14.66
2022-10-28T01:53:00.334Z,14.68
2022-10-28T01:54:00.503Z,14.71
2022-10-28T01:55:00.626Z,14.73
2022-10-28T01:56:00.776Z,14.75
2022-10-28T01:57:00.927Z,14.78
2022-10-28T01:58:01.090Z,14.79
2022-10-28T01:59:01.256Z,14.79
2022-10-28T02:00:00.415Z,14.82
2022-10-28T02:01:00.708Z,14.82
2022-10-28T02:03:00.841Z,14.84
2022-10-28T02:04:01.016Z,14.84
2022-10-28T02:05:01.133Z,14.85
2022-10-28T02:06:00.291Z,14.85
2022-10-28T02:07:00.431Z,14.85
2022-10-28T02:08:00.585Z,14.85
2022-10-28T02:09:00.750Z,14.84
2022-10-28T02:10:00.882Z,14.83
2022-10-28T02:11:01.025Z,14.82
2022-10-28T02:12:01.153Z,14.83
2022-10-28T02:13:00.307Z,14.84
2022-10-28T02:14:00.497Z,14.86
2022-10-28T02:15:00.647Z,14.86
2022-10-28T02:16:00.768Z,14.85
2022-10-28T02:17:00.903Z,14.84
2022-10-28T02:18:01.057Z,14.83
2022-10-28T02:19:01.228Z,14.83
2022-10-28T02:20:00.348Z,14.8
2022-10-28T02:21:00.486Z,14.8
2022-10-28T02:22:00.638Z,14.82
2022-10-28T02:23:00.798Z,14.82
2022-10-28T02:24:00.968Z,14.82
2022-10-28T02:25:01.082Z,14.8
2022-10-28T02:26:01.239Z,14.8
2022-10-28T02:27:00.371Z,14.8
2022-10-28T02:28:00.561Z,14.8
2022-10-28T02:29:00.697Z,14.8
2022-10-28T02:30:00.843Z,14.79
2022-10-28T02:31:00.971Z,14.77
2022-10-28T02:32:01.129Z,14.74
2022-10-28T02:33:00.280Z,14.72
2022-10-28T02:34:00.436Z,14.69
2022-10-28T02:35:00.585Z,14.68
2022-10-28T02:36:00.714Z,14.67
2022-10-28T02:37:00.846Z,14.66
2022-10-28T02:38:01.007Z,14.64
2022-10-28T02:39:01.143Z,14.65
2022-10-28T02:40:00.323Z,14.64
2022-10-28T02:41:00.454Z,14.62
2022-10-28T02:42:00.600Z,14.59
2022-10-28T02:43:00.748Z,14.57
2022-10-28T02:44:00.901Z,14.56
2022-10-28T02:45:01.075Z,14.55
2022-10-28T02:46:01.198Z,14.54
2022-10-28T02:47:00.354Z,14.53
2022-10-28T02:48:00.491Z,14.54
2022-10-28T02:49:00.649Z,14.54
2022-10-28T02:50:00.815Z,14.54
2022-10-28T02:51:00.953Z,14.55
2022-10-28T02:52:01.095Z,14.55
2022-10-28T02:53:01.236Z,14.55
2022-10-28T02:54:00.394Z,14.54
2022-10-28T02:55:00.559Z,14.54
2022-10-28T02:56:00.699Z,14.53
2022-10-28T02:57:00.830Z,14.54
2022-10-28T02:58:00.978Z,14.56
2022-10-28T02:59:01.137Z,14.55
2022-10-28T03:00:00.298Z,14.53
2022-10-28T03:01:00.440Z,14.51
2022-10-28T03:02:00.660Z,14.5
2022-10-28T03:03:00.727Z,14.48
2022-10-28T03:04:00.860Z,14.44
2022-10-28T03:05:01.013Z,14.44
2022-10-28T03:06:01.157Z,14.44
2022-10-28T03:07:00.307Z,14.43
2022-10-28T03:08:00.473Z,14.42
2022-10-28T03:09:00.593Z,14.39
2022-10-28T03:10:00.741Z,14.38
2022-10-28T03:11:00.888Z,14.35
2022-10-28T03:12:01.124Z,14.32
2022-10-28T03:13:01.213Z,14.28
2022-10-28T03:14:00.338Z,14.25
2022-10-28T03:15:00.488Z,14.22
2022-10-28T03:16:00.626Z,14.2
2022-10-28T03:17:00.780Z,14.18
2022-10-28T03:18:00.945Z,14.14
2022-10-28T03:19:01.128Z,14.11
2022-10-28T03:20:01.213Z,14.09
2022-10-28T03:21:00.355Z,14.05
2022-10-28T03:22:00.499Z,14
2022-10-28T03:23:00.657Z,13.91
2022-10-28T03:24:00.778Z,13.82
2022-10-28T03:25:00.932Z,13.77
2022-10-28T03:26:01.088Z,13.7
2022-10-28T03:27:01.231Z,13.62
2022-10-28T03:28:00.405Z,13.56
2022-10-28T03:29:00.531Z,13.51
2022-10-28T03:30:00.673Z,13.48
2022-10-28T03:31:00.827Z,13.44
2022-10-28T03:32:00.965Z,13.39
2022-10-28T03:33:01.132Z,13.35
2022-10-28T03:34:00.264Z,13.31
2022-10-28T03:35:00.410Z,13.26
2022-10-28T03:36:00.566Z,13.23
2022-10-28T03:37:00.717Z,13.2
2022-10-28T03:38:00.893Z,13.17
2022-10-28T03:39:01.008Z,13.1
2022-10-28T03:40:01.162Z,13.03
2022-10-28T03:41:00.303Z,13
2022-10-28T03:42:00.453Z,12.95
2022-10-28T03:43:00.620Z,12.91
2022-10-28T03:44:00.772Z,12.89
2022-10-28T03:45:00.887Z,12.85
2022-10-28T03:46:01.037Z,12.84
2022-10-28T03:47:01.169Z,12.81
2022-10-28T03:48:00.319Z,12.81
2022-10-28T03:49:00.481Z,12.82
2022-10-28T03:50:00.629Z,12.81
2022-10-28T03:51:00.758Z,12.79
2022-10-28T03:52:00.912Z,12.78
2022-10-28T03:53:01.045Z,12.78
2022-10-28T03:54:01.192Z,12.8
2022-10-28T03:55:00.388Z,12.77
2022-10-28T03:56:00.483Z,12.76
2022-10-28T03:57:00.634Z,12.75
2022-10-28T03:58:00.784Z,12.74
2022-10-28T03:59:00.927Z,12.73
2022-10-28T04:00:01.098Z,12.72
2022-10-28T04:01:01.267Z,12.71
2022-10-28T04:02:00.512Z,12.72
2022-10-28T04:03:00.537Z,12.76
2022-10-28T04:04:00.678Z,12.82
2022-10-28T04:05:00.843Z,12.87
2022-10-28T04:06:00.992Z,12.92
2022-10-28T04:07:01.124Z,12.97
2022-10-28T04:08:00.271Z,13.03
2022-10-28T04:09:00.423Z,13.08
2022-10-28T04:10:00.567Z,13.14
2022-10-28T04:11:00.721Z,13.19
2022-10-28T04:12:00.932Z,13.22
2022-10-28T04:13:01.009Z,13.25
2022-10-28T04:14:01.170Z,13.33
2022-10-28T04:15:00.295Z,13.38
2022-10-28T04:16:00.444Z,13.44
2022-10-28T04:17:00.598Z,13.5
2022-10-28T04:18:00.749Z,13.53
2022-10-28T04:19:00.920Z,13.59
2022-10-28T04:20:01.042Z,13.63
2022-10-28T04:21:01.183Z,13.66
2022-10-28T04:22:00.321Z,13.68
2022-10-28T04:23:00.724Z,13.7
2022-10-28T04:24:00.624Z,13.7
2022-10-28T04:25:00.783Z,13.7
2022-10-28T04:26:00.901Z,13.69
2022-10-28T04:27:01.049Z,13.68
2022-10-28T04:28:01.195Z,13.67
2022-10-28T04:29:00.358Z,13.66
2022-10-28T04:30:00.499Z,13.66
2022-10-28T04:31:00.625Z,13.65
2022-10-28T04:32:00.782Z,13.64
2022-10-28T04:33:00.929Z,13.63
2022-10-28T04:34:01.082Z,13.61
2022-10-28T04:35:01.250Z,13.6
2022-10-28T04:36:00.374Z,13.6
2022-10-28T04:37:00.543Z,13.6
2022-10-28T04:38:00.678Z,13.59
2022-10-28T04:39:00.834Z,13.55
2022-10-28T04:40:00.999Z,13.51
2022-10-28T04:41:01.137Z,13.47
2022-10-28T04:42:00.269Z,13.43
2022-10-28T04:43:00.416Z,13.39
2022-10-28T04:44:00.559Z,13.37
2022-10-28T04:45:00.741Z,13.35
2022-10-28T04:46:00.854Z,13.33
2022-10-28T04:47:01.024Z,13.33
2022-10-28T04:48:01.156Z,13.32
2022-10-28T04:49:00.300Z,13.31
2022-10-28T04:50:00.472Z,13.27
2022-10-28T04:51:00.625Z,13.26
2022-10-28T04:52:00.755Z,13.24
2022-10-28T04:53:00.901Z,13.22
2022-10-28T04:54:01.055Z,13.21
2022-10-28T04:55:01.195Z,13.19
2022-10-28T04:56:00.373Z,13.18
2022-10-28T04:57:00.500Z,13.16
2022-10-28T04:58:00.652Z,13.15
2022-10-28T04:59:00.789Z,13.14
2022-10-28T05:00:00.935Z,13.12
2022-10-28T05:01:01.129Z,13.11
2022-10-28T05:02:01.335Z,13.1
2022-10-28T05:03:00.378Z,13.1
2022-10-28T05:04:00.519Z,13.09
2022-10-28T05:05:00.691Z,13.08
2022-10-28T05:06:00.855Z,13.09
2022-10-28T05:07:00.989Z,13.09
2022-10-28T05:08:01.124Z,13.09
2022-10-28T05:09:00.268Z,13.1
2022-10-28T05:10:00.410Z,13.1
2022-10-28T05:11:00.579Z,13.09
2022-10-28T05:12:00.692Z,13.06
2022-10-28T05:13:00.840Z,13.05
2022-10-28T05:14:00.996Z,13.02
2022-10-28T05:15:01.134Z,13.01
2022-10-28T05:16:00.297Z,12.97
2022-10-28T05:17:00.453Z,12.92
2022-10-28T05:18:00.575Z,12.85
2022-10-28T05:19:00.725Z,12.78
2022-10-28T05:20:00.865Z,12.71
2022-10-28T05:21:01.017Z,12.61
2022-10-28T05:22:01.171Z,12.58
2022-10-28T05:23:00.290Z,12.52
2022-10-28T05:24:00.441Z,12.49
2022-10-28T05:25:00.597Z,12.47
2022-10-28T05:26:00.749Z,12.44
2022-10-28T05:27:00.933Z,12.4
2022-10-28T05:28:01.035Z,12.37
2022-10-28T05:29:01.193Z,12.32
2022-10-28T05:30:00.329Z,12.29
2022-10-28T05:31:00.484Z,12.25
2022-10-28T05:32:00.702Z,12.2
2022-10-28T05:33:01.323Z,12.16
2022-10-28T05:34:00.963Z,12.14
2022-10-28T05:35:01.115Z,12.1
2022-10-28T05:36:01.247Z,12.05
2022-10-28T05:37:00.411Z,12
2022-10-28T05:38:00.542Z,11.97
2022-10-28T05:39:00.687Z,11.96
2022-10-28T05:40:00.837Z,11.94
2022-10-28T05:41:00.986Z,11.93
2022-10-28T05:42:01.157Z,11.92
2022-10-28T05:43:00.288Z,11.92
2022-10-28T05:44:00.430Z,11.91
2022-10-28T05:45:00.571Z,11.88
2022-10-28T05:46:00.723Z,11.86
2022-10-28T05:47:00.953Z,11.85
2022-10-28T05:48:01.050Z,11.84
2022-10-28T05:49:01.168Z,11.82
2022-10-28T05:50:00.310Z,11.81
2022-10-28T05:51:00.468Z,11.83
2022-10-28T05:52:00.618Z,11.84
2022-10-28T05:53:00.785Z,11.82
2022-10-28T05:54:00.907Z,11.81
2022-10-28T05:55:01.058Z,11.79
2022-10-28T05:56:01.198Z,11.79
2022-10-28T05:57:00.346Z,11.78
2022-10-28T05:58:00.511Z,11.78
2022-10-28T05:59:00.630Z,11.79
2022-10-28T06:00:00.780Z,11.81
2022-10-28T06:01:00.932Z,11.79
2022-10-28T06:02:01.091Z,11.77
2022-10-28T06:03:01.266Z,11.75
2022-10-28T06:04:00.443Z,11.73
2022-10-28T06:05:00.530Z,11.73
2022-10-28T06:06:00.691Z,11.72
2022-10-28T06:07:00.830Z,11.71
2022-10-28T06:08:00.977Z,11.73
2022-10-28T06:09:01.171Z,11.76
2022-10-28T06:10:00.285Z,11.81
2022-10-28T06:10:58.891Z,11.86
2022-10-28T06:11:59.060Z,11.9
2022-10-28T06:12:59.198Z,11.96
2022-10-28T06:13:59.383Z,11.99
2022-10-28T06:14:59.507Z,12.05
2022-10-28T06:15:59.664Z,12.08
2022-10-28T06:16:58.796Z,12.12
2022-10-28T06:17:58.945Z,12.16
2022-10-28T06:18:59.095Z,12.19
2022-10-28T06:19:59.261Z,12.23
2022-10-28T06:20:59.396Z,12.27
2022-10-28T06:21:59.688Z,12.3
2022-10-28T06:22:59.694Z,12.32
2022-10-28T06:23:58.846Z,12.36
2022-10-28T06:24:59.000Z,12.38
2022-10-28T06:25:59.245Z,12.43
2022-10-28T06:26:59.288Z,12.46
2022-10-28T06:27:59.431Z,12.5
2022-10-28T06:28:59.590Z,12.56
2022-10-28T06:29:58.742Z,12.6
2022-10-28T06:30:58.906Z,12.63
2022-10-28T06:31:59.070Z,12.69
2022-10-28T06:32:59.205Z,12.73
2022-10-28T06:33:59.341Z,12.77
2022-10-28T06:34:59.501Z,12.79
2022-10-28T06:35:59.652Z,12.82
2022-10-28T06:36:58.818Z,12.86
2022-10-28T06:37:58.945Z,12.89
2022-10-28T06:38:59.089Z,12.93
2022-10-28T06:39:59.246Z,12.95
2022-10-28T06:40:59.385Z,12.99
2022-10-28T06:41:59.550Z,13.03
2022-10-28T06:42:59.708Z,13.09
2022-10-28T06:43:58.829Z,13.17
2022-10-28T06:44:58.977Z,13.23
2022-10-28T06:45:59.117Z,13.31
2022-10-28T06:47:00.864Z,13.39
2022-10-28T06:48:00.944Z,13.49
2022-10-28T06:49:01.108Z,13.56
2022-10-28T06:50:01.248Z,13.63
2022-10-28T06:51:00.393Z,13.68
2022-10-28T06:52:00.537Z,13.76
2022-10-28T06:53:00.684Z,13.81
2022-10-28T06:54:00.856Z,13.88
2022-10-28T06:55:00.990Z,13.93
2022-10-28T06:56:01.123Z,14
2022-10-28T06:57:01.265Z,14.05
2022-10-28T06:58:00.423Z,14.1
2022-10-28T06:59:00.586Z,14.13
2022-10-28T07:00:00.753Z,14.2
2022-10-28T07:01:00.880Z,14.25
2022-10-28T07:02:01.220Z,14.32
2022-10-28T07:03:01.507Z,14.36
2022-10-28T07:04:00.315Z,14.42
2022-10-28T07:05:00.483Z,14.43
2022-10-28T07:06:00.654Z,14.44
2022-10-28T07:07:00.752Z,14.47
2022-10-28T07:08:00.891Z,14.51
2022-10-28T07:09:01.054Z,14.53
2022-10-28T07:10:01.206Z,14.56
2022-10-28T07:11:00.334Z,14.59
2022-10-28T07:12:04.933Z,14.62
2022-10-28T07:13:00.636Z,14.66
2022-10-28T07:14:00.794Z,14.69
2022-10-28T07:15:00.967Z,14.72
2022-10-28T07:16:01.094Z,14.74
2022-10-28T07:17:01.237Z,14.77
2022-10-28T07:18:00.384Z,14.78
2022-10-28T07:19:00.530Z,14.79
2022-10-28T07:20:00.699Z,14.8
2022-10-28T07:21:00.838Z,14.82
2022-10-28T07:22:00.966Z,14.83
2022-10-28T07:23:01.133Z,14.84
2022-10-28T07:24:01.272Z,14.86
2022-10-28T07:25:00.433Z,14.88
2022-10-28T07:26:00.589Z,14.89
2022-10-28T07:27:00.724Z,14.91
2022-10-28T07:28:00.872Z,14.92
2022-10-28T07:29:01.037Z,14.94
2022-10-28T07:30:01.201Z,14.96
2022-10-28T07:31:00.402Z,14.96
2022-10-28T07:32:00.461Z,14.98
2022-10-28T07:33:00.634Z,15.01
2022-10-28T07:34:00.774Z,15.06
2022-10-28T07:35:00.933Z,15.1
2022-10-28T07:36:01.061Z,15.15
2022-10-28T07:37:01.209Z,15.19
2022-10-28T07:38:00.351Z,15.24
2022-10-28T07:39:00.504Z,15.29
2022-10-28T07:40:00.665Z,15.34
2022-10-28T07:41:00.784Z,15.4
2022-10-28T07:42:00.933Z,15.44
2022-10-28T07:43:01.087Z,15.48
2022-10-28T07:44:01.219Z,15.53
2022-10-28T07:45:00.407Z,15.57
2022-10-28T07:46:00.520Z,15.61
2022-10-28T07:47:00.672Z,15.66
2022-10-28T07:48:00.811Z,15.7
2022-10-28T07:49:00.957Z,15.73
2022-10-28T07:50:03.606Z,15.76
2022-10-28T07:51:01.256Z,15.8
2022-10-28T07:52:00.389Z,15.81
2022-10-28T07:53:00.547Z,15.86
2022-10-28T07:54:00.695Z,15.9
2022-10-28T07:55:00.859Z,15.95
2022-10-28T07:56:00.987Z,16
2022-10-28T07:57:01.139Z,16.04
2022-10-28T07:58:01.291Z,16.1
2022-10-28T07:59:00.433Z,16.14
2022-10-28T08:00:00.594Z,16.18
2022-10-28T08:01:00.769Z,16.22
2022-10-28T08:02:00.971Z,16.26
2022-10-28T08:03:01.016Z,16.31
2022-10-28T08:04:01.176Z,16.36
2022-10-28T08:05:00.308Z,16.42
2022-10-28T08:06:00.450Z,16.47
2022-10-28T08:07:00.598Z,16.5
2022-10-28T08:08:00.740Z,16.54
2022-10-28T08:09:00.910Z,16.6
2022-10-28T08:10:01.036Z,16.65
2022-10-28T08:11:01.177Z,16.74
2022-10-28T08:12:00.324Z,16.82
2022-10-28T08:13:00.479Z,16.89
2022-10-28T08:14:00.634Z,16.95
2022-10-28T08:15:00.783Z,16.99
2022-10-28T08:16:00.916Z,17.03
2022-10-28T08:17:01.060Z,17.07
2022-10-28T08:18:01.200Z,17.16
2022-10-28T08:19:02.935Z,17.23
2022-10-28T08:20:00.507Z,17.3
2022-10-28T08:22:00.786Z,17.41
2022-10-28T08:23:03.950Z,17.47
2022-10-28T08:24:01.086Z,17.52
2022-10-28T08:25:01.272Z,17.6
2022-10-28T08:26:00.387Z,17.65
2022-10-28T08:27:00.518Z,17.72
2022-10-28T08:28:00.682Z,17.78
2022-10-28T08:29:00.858Z,17.82
2022-10-28T08:30:00.999Z,17.85
2022-10-28T08:31:08.230Z,17.9
2022-10-28T08:32:00.271Z,17.93
2022-10-28T08:33:00.418Z,17.97
2022-10-28T08:34:00.578Z,18.02
2022-10-28T08:35:00.743Z,18.04
2022-10-28T08:36:00.869Z,18.04
2022-10-28T08:37:01.083Z,18.04
2022-10-28T08:38:01.148Z,18.04
2022-10-28T08:39:00.290Z,18.04
2022-10-28T08:40:00.444Z,18.03
2022-10-28T08:41:00.599Z,18
2022-10-28T08:42:00.739Z,17.99
2022-10-28T08:43:00.899Z,17.98
2022-10-28T08:44:01.031Z,17.98
2022-10-28T08:45:01.174Z,17.99
2022-10-28T08:46:00.360Z,18
2022-10-28T08:47:00.468Z,18.02
2022-10-28T08:49:00.766Z,18.07
2022-10-28T08:50:00.912Z,18.1
2022-10-28T08:51:01.079Z,18.11
2022-10-28T08:52:01.217Z,18.13
2022-10-28T08:53:00.359Z,18.14
2022-10-28T08:54:00.496Z,18.15
2022-10-28T08:55:00.655Z,18.15
2022-10-28T08:56:00.823Z,18.15
2022-10-28T08:57:00.955Z,18.13
2022-10-28T08:58:01.108Z,18.14
2022-10-28T08:59:01.246Z,18.14
2022-10-28T09:00:00.393Z,18.13
2022-10-28T09:01:00.683Z,18.13
2022-10-28T09:02:00.691Z,18.12
2022-10-28T09:03:00.839Z,18.12
2022-10-28T09:04:00.981Z,18.12
2022-10-28T09:05:01.248Z,18.12
2022-10-28T09:06:00.290Z,18.11
2022-10-28T09:07:00.416Z,18.11
2022-10-28T09:08:00.569Z,18.11
2022-10-28T09:09:00.724Z,18.11
2022-10-28T09:10:00.865Z,18.11
2022-10-28T09:11:01.039Z,18.09
2022-10-28T09:12:01.163Z,18.09
2022-10-28T09:13:00.303Z,18.09
2022-10-28T09:14:00.473Z,18.09
2022-10-28T09:15:00.615Z,18.11
2022-10-28T09:16:00.781Z,18.13
2022-10-28T09:17:00.911Z,18.15
2022-10-28T09:18:01.059Z,18.18
2022-10-28T09:19:01.206Z,18.19
2022-10-28T09:20:00.347Z,18.2
2022-10-28T09:21:00.522Z,18.23
2022-10-28T09:22:00.655Z,18.26
2022-10-28T09:23:00.802Z,18.27
2022-10-28T09:24:00.950Z,18.33
2022-10-28T09:25:01.310Z,18.36
2022-10-28T09:26:01.274Z,18.41
2022-10-28T09:27:00.396Z,18.48
2022-10-28T09:28:00.547Z,18.52
2022-10-28T09:29:00.758Z,18.57
2022-10-28T09:30:00.852Z,18.62
2022-10-28T09:31:01.009Z,18.67
2022-10-28T09:32:01.163Z,18.7
2022-10-28T09:33:00.296Z,18.73
2022-10-28T09:34:00.436Z,18.77
2022-10-28T09:35:00.641Z,18.79
2022-10-28T09:36:00.743Z,18.82
2022-10-28T09:37:00.896Z,18.85
2022-10-28T09:38:01.043Z,18.86
2022-10-28T09:39:01.180Z,18.85
2022-10-28T09:40:00.344Z,18.88
2022-10-28T09:41:00.483Z,18.89
2022-10-28T09:42:00.632Z,18.88
2022-10-28T09:43:00.793Z,18.89
2022-10-28T09:44:00.931Z,18.89
2022-10-28T09:45:01.078Z,18.88
2022-10-28T09:46:01.229Z,18.85
2022-10-28T09:47:00.374Z,18.83
2022-10-28T09:48:00.539Z,18.83
2022-10-28T09:49:00.689Z,18.84
2022-10-28T09:50:00.820Z,18.84
2022-10-28T09:51:00.993Z,18.83
2022-10-28T09:52:01.128Z,18.84
2022-10-28T09:53:00.261Z,18.85
2022-10-28T09:54:00.424Z,18.87
2022-10-28T09:55:00.581Z,18.89
2022-10-28T09:56:00.766Z,18.89
2022-10-28T09:57:00.870Z,18.93
2022-10-28T09:58:01.004Z,18.95
2022-10-28T09:59:01.145Z,18.98
2022-10-28T10:00:00.301Z,19.01
2022-10-28T10:01:00.465Z,19.04
2022-10-28T10:02:00.747Z,19.08
2022-10-28T10:03:00.813Z,19.11
2022-10-28T10:04:00.887Z,19.14
2022-10-28T10:05:01.032Z,19.17
2022-10-28T10:06:01.209Z,19.23
2022-10-28T10:07:00.338Z,19.27
2022-10-28T10:08:00.483Z,19.32
2022-10-28T10:09:00.621Z,19.38
2022-10-28T10:10:00.805Z,19.43
2022-10-28T10:11:00.948Z,19.47
2022-10-28T10:12:01.063Z,19.53
2022-10-28T10:13:01.236Z,19.57
2022-10-28T10:14:00.378Z,19.6
2022-10-28T10:15:00.536Z,19.63
2022-10-28T10:16:00.698Z,19.66
2022-10-28T10:17:00.828Z,19.69
2022-10-28T10:18:00.978Z,19.72
2022-10-28T10:19:01.133Z,19.73
2022-10-28T10:20:00.278Z,19.74
2022-10-28T10:21:00.441Z,19.76
2022-10-28T10:22:00.564Z,19.77
2022-10-28T10:23:00.728Z,19.77
2022-10-28T10:24:00.870Z,19.79
2022-10-28T10:25:01.030Z,19.77
2022-10-28T10:26:01.187Z,19.76
2022-10-28T10:27:00.304Z,19.75
2022-10-28T10:28:00.456Z,19.74
2022-10-28T10:29:00.606Z,19.76
2022-10-28T10:30:00.752Z,19.79
2022-10-28T10:31:00.920Z,19.82
2022-10-28T10:32:01.050Z,19.9
2022-10-28T10:33:01.191Z,19.91
2022-10-28T10:34:00.344Z,19.97
2022-10-28T10:35:00.484Z,20.06
2022-10-28T10:36:00.662Z,20.14
2022-10-28T10:37:00.844Z,20.19
2022-10-28T10:38:00.937Z,20.21
2022-10-28T10:39:01.103Z,20.25
2022-10-28T10:40:01.238Z,20.27
2022-10-28T10:41:00.418Z,20.29
2022-10-28T10:42:00.564Z,20.31
2022-10-28T10:43:12.757Z,20.35
2022-10-28T10:44:00.880Z,20.42
2022-10-28T10:45:01.001Z,20.44
2022-10-28T10:46:01.157Z,20.43
2022-10-28T10:47:05.095Z,20.44
2022-10-28T10:48:00.446Z,20.45
2022-10-28T10:49:00.586Z,20.47
2022-10-28T10:50:00.720Z,20.49
2022-10-28T10:51:00.869Z,20.51
2022-10-28T10:52:01.063Z,20.51
2022-10-28T10:53:01.180Z,20.54
2022-10-28T10:54:00.335Z,20.55
2022-10-28T10:55:00.504Z,20.55
2022-10-28T10:56:00.649Z,20.54
2022-10-28T10:57:00.793Z,20.56
2022-10-28T10:58:00.922Z,20.57
2022-10-28T10:59:01.069Z,20.57
2022-10-28T11:00:01.221Z,20.58
2022-10-28T11:01:00.384Z,20.6
2022-10-28T11:02:00.693Z,20.6
2022-10-28T11:03:00.746Z,20.6
2022-10-28T11:04:00.869Z,20.59
2022-10-28T11:05:00.969Z,20.59
2022-10-28T11:06:22.594Z,20.6
2022-10-28T11:07:01.261Z,20.61
2022-10-28T11:08:00.427Z,20.61
2022-10-28T11:09:00.623Z,20.6
2022-10-28T11:10:00.698Z,20.6
2022-10-28T11:11:00.859Z,20.59
2022-10-28T11:12:00.995Z,20.59
2022-10-28T11:13:01.172Z,20.59
2022-10-28T11:14:00.290Z,20.57
2022-10-28T11:15:00.434Z,20.55
2022-10-28T11:16:00.583Z,20.51
2022-10-28T11:17:00.731Z,20.5
2022-10-28T11:18:00.890Z,20.5
2022-10-28T11:19:01.020Z,20.53
2022-10-28T11:20:01.173Z,20.54
2022-10-28T11:21:00.316Z,20.55
2022-10-28T11:22:00.451Z,20.59
2022-10-28T11:23:00.624Z,20.6
2022-10-28T11:24:00.751Z,20.61
2022-10-28T11:25:00.910Z,20.63
2022-10-28T11:26:01.075Z,20.68
2022-10-28T11:27:01.192Z,20.72
2022-10-28T11:28:04.054Z,20.77
2022-10-28T11:29:00.501Z,20.84
2022-10-28T11:30:00.654Z,20.91
2022-10-28T11:31:00.872Z,20.95
2022-10-28T11:32:00.959Z,21.03
2022-10-28T11:33:02.155Z,21.08
2022-10-28T11:34:01.249Z,21.09
2022-10-28T11:35:00.391Z,21.15
2022-10-28T11:36:00.565Z,21.22
2022-10-28T11:37:00.680Z,21.27
2022-10-28T11:38:00.835Z,21.32
2022-10-28T11:39:00.982Z,21.36
2022-10-28T11:40:01.128Z,21.44
2022-10-28T11:41:00.309Z,21.49
2022-10-28T11:42:00.426Z,21.53
2022-10-28T11:43:00.575Z,21.58
2022-10-28T11:44:05.024Z,21.62
2022-10-28T11:45:00.860Z,21.68
2022-10-28T11:46:01.026Z,21.72
2022-10-28T11:47:04.177Z,21.75
2022-10-28T11:48:00.310Z,21.78
2022-10-28T11:49:00.460Z,21.82
2022-10-28T11:50:00.611Z,21.84
2022-10-28T11:51:00.753Z,21.87
2022-10-28T11:52:00.903Z,21.87
2022-10-28T11:53:01.046Z,21.88
2022-10-28T11:54:01.190Z,21.92
2022-10-28T11:55:00.362Z,21.95
2022-10-28T11:56:00.494Z,21.99
2022-10-28T11:57:00.634Z,22.02
2022-10-28T11:58:00.836Z,22.05
2022-10-28T11:59:00.933Z,22.07
2022-10-28T12:00:01.115Z,22.08
2022-10-28T12:01:01.244Z,22.06
2022-10-28T12:02:00.584Z,22.06
2022-10-28T12:03:01.114Z,22.07
2022-10-28T12:04:00.692Z,22.08
2022-10-28T12:05:00.863Z,22.08
2022-10-28T12:06:00.988Z,22.08
2022-10-28T12:07:01.150Z,22.07
2022-10-28T12:08:00.291Z,22.09
2022-10-28T12:09:00.523Z,22.09
2022-10-28T12:10:00.600Z,22.11
2022-10-28T12:11:00.749Z,22.13
2022-10-28T12:12:00.886Z,22.18
2022-10-28T12:13:01.051Z,22.2
2022-10-28T12:15:00.404Z,22.2
2022-10-28T12:16:00.492Z,22.21
2022-10-28T12:17:00.635Z,22.22
2022-10-28T12:18:00.781Z,22.25
2022-10-28T12:19:00.957Z,22.27
2022-10-28T12:20:01.090Z,22.29
2022-10-28T12:21:01.291Z,22.31
2022-10-28T12:22:00.373Z,22.33
2022-10-28T12:23:00.545Z,22.37
2022-10-28T12:24:00.708Z,22.38
2022-10-28T12:25:00.891Z,22.41
2022-10-28T12:26:00.989Z,22.44
2022-10-28T12:27:01.125Z,22.47
2022-10-28T12:28:00.347Z,22.48
2022-10-28T12:29:00.445Z,22.47
2022-10-28T12:30:00.581Z,22.46
2022-10-28T12:31:00.732Z,22.41
2022-10-28T12:32:00.879Z,22.36
2022-10-28T12:33:01.025Z,22.28
2022-10-28T12:34:01.202Z,22.21
2022-10-28T12:35:00.336Z,22.13
2022-10-28T12:36:00.465Z,22.09
2022-10-28T12:37:00.627Z,22.01
2022-10-28T12:38:00.786Z,21.94
2022-10-28T12:39:00.950Z,21.89
2022-10-28T12:40:01.082Z,21.83
2022-10-28T12:41:01.210Z,21.78
2022-10-28T12:42:00.369Z,21.73
2022-10-28T12:43:00.515Z,21.68
2022-10-28T12:44:00.688Z,21.63
2022-10-28T12:45:00.850Z,21.59
2022-10-28T12:46:00.977Z,21.53
2022-10-28T12:47:01.124Z,21.49
2022-10-28T12:48:00.719Z,21.45
2022-10-28T12:49:00.430Z,21.39
2022-10-28T12:50:00.582Z,21.34
2022-10-28T12:51:00.741Z,21.28
2022-10-28T12:52:00.863Z,21.23
2022-10-28T12:53:01.013Z,21.18
2022-10-28T12:54:01.156Z,21.1
2022-10-28T12:55:00.406Z,21.02
2022-10-28T12:56:00.528Z,20.96
2022-10-28T12:57:00.600Z,20.93
2022-10-28T12:58:00.751Z,20.89
2022-10-28T12:59:00.993Z,20.87